KVPS/VPS METAR and TAF weather

Enter ICAO airport designator
Station Type Date Time Source
KVPS METAR 2019/06/17 14:55 UTC NOAA

KVPS 171455Z 11011KT 10SM SCT020 SCT080 BKN200 29/24 A3000 RMK AO2A SLP165 T02920236 50006 $


Station Type Date Time Source
KVPS Decoded METAR 2019/06/17 14:55 UTC NOAA

Valparaiso / Eglin Air Force Base, FL, United States (KVPS) 30-29N 086-31W 29M
Jun 17, 2019 - 10:55 AM EDT / 2019.06.17 1455 UTC
Wind: from the ESE (110 degrees) at 13 MPH (11 KT):0
Visibility: 10 mile(s):0
Sky conditions: mostly cloudy
Temperature: 84.6 F (29.2 C)
Dew Point: 74.5 F (23.6 C)
Relative Humidity: 71%
Pressure (altimeter): 30 in. Hg (1015 hPa)
Pressure tendency: 0.02 inches (0.6 hPa) higher than three hours ago
ob: KVPS 171455Z 11011KT 10SM SCT020 SCT080 BKN200 29/24 A3000 RMK AO2A SLP165 T02920236 50006
cycle: 15

Station Type Date Time Source
KVPS TAF 2019/06/17 14:39 UTC NOAA

TAF
AMD KVPS 171420Z 1714/1815 12009KT 9999 FEW025 BKN250 QNH2994INS
BECMG 1716/1717 18012KT 9999 FEW022 SCT250 QNH2998INS WND 21009KT AFT 1723
TEMPO 1717/1721 18015G22KT 8000 -SHRA VCTS BKN020CB
BECMG 1802/1803 18009KT 9999 BKN018 QNH3000INS
BECMG 1807/1808 18009KT 9999 BKN025 QNH3003INS
BECMG 1810/1811 18012G20KT 8000 -TSRA BKN015CB BKN040 BKN250 QNH2998INS TX32/1719Z TN28/1813Z

Example: see airport list